createdAt,value
2019-02-27T00:01:56.492Z,17.50
2019-02-27T00:04:26.213Z,17.20
2019-02-27T00:06:55.914Z,17.70
2019-02-27T00:09:26.558Z,17.10
2019-02-27T00:11:56.341Z,19.27
2019-02-27T00:14:25.992Z,17.67
2019-02-27T00:16:56.682Z,17.90
2019-02-27T00:19:26.302Z,17.47
2019-02-27T00:21:55.907Z,17.77
2019-02-27T00:24:27.036Z,17.87
2019-02-27T00:26:56.956Z,16.30
2019-02-27T00:29:28.833Z,15.57
2019-02-27T00:31:58.889Z,15.57
2019-02-27T00:34:32.813Z,16.33
2019-02-27T00:36:59.907Z,17.43
2019-02-27T00:39:31.223Z,16.87
2019-02-27T00:42:01.259Z,17.63
2019-02-27T00:44:33.927Z,16.60
2019-02-27T00:47:02.168Z,16.30
2019-02-27T00:49:32.374Z,17.00
2019-02-27T00:52:02.805Z,16.43
2019-02-27T00:54:32.586Z,18.77
2019-02-27T00:57:02.375Z,15.77
2019-02-27T00:59:33.215Z,14.87
2019-02-27T01:02:03.553Z,15.73
2019-02-27T01:04:35.201Z,15.60
2019-02-27T01:07:05.108Z,15.40
2019-02-27T01:09:37.227Z,14.70
2019-02-27T01:12:07.108Z,15.33
2019-02-27T01:14:37.840Z,17.30
2019-02-27T01:17:07.630Z,16.60
2019-02-27T01:19:39.262Z,17.00
2019-02-27T01:22:08.607Z,16.90
2019-02-27T01:24:38.246Z,16.27
2019-02-27T01:27:08.006Z,15.67
2019-02-27T01:29:38.565Z,16.93
2019-02-27T01:32:08.290Z,17.53
2019-02-27T01:34:38.294Z,17.23
2019-02-27T01:37:08.032Z,17.37
2019-02-27T01:39:37.692Z,16.73
2019-02-27T01:42:07.303Z,17.90
2019-02-27T01:44:37.003Z,18.80
2019-02-27T01:47:06.758Z,17.27
2019-02-27T01:49:36.462Z,17.33
2019-02-27T01:52:06.053Z,17.07
2019-02-27T01:54:36.908Z,18.23
2019-02-27T01:57:06.589Z,17.77
2019-02-27T01:59:36.190Z,18.23
2019-02-27T02:02:05.796Z,17.57
2019-02-27T02:04:35.586Z,18.17
2019-02-27T02:07:06.589Z,17.57
2019-02-27T02:09:38.118Z,17.17
2019-02-27T02:12:20.538Z,17.23
2019-02-27T02:15:01.348Z,16.50
2019-02-27T02:18:04.354Z,16.30
2019-02-27T02:20:45.469Z,16.60
2019-02-27T02:23:37.647Z,18.83
2019-02-27T02:26:58.568Z,17.13
2019-02-27T02:30:11.630Z,19.43
2019-02-27T02:32:53.199Z,17.33
2019-02-27T02:35:54.749Z,18.30
2019-02-27T02:38:43.134Z,18.90
2019-02-27T02:41:52.738Z,19.27
2019-02-27T02:44:38.169Z,18.03
2019-02-27T02:47:21.079Z,18.77
2019-02-27T02:50:29.702Z,20.37
2019-02-27T02:53:14.111Z,18.17
2019-02-27T02:56:32.276Z,19.73
2019-02-27T02:59:38.196Z,19.00
2019-02-27T03:02:37.289Z,19.53
2019-02-27T03:05:35.214Z,18.90
2019-02-27T03:08:33.506Z,18.87
2019-02-27T03:11:19.018Z,18.87
2019-02-27T03:14:35.315Z,18.57
2019-02-27T03:18:07.764Z,19.67
2019-02-27T03:21:27.370Z,17.67
2019-02-27T03:24:28.931Z,19.43
2019-02-27T03:27:34.878Z,18.30
2019-02-27T03:31:00.598Z,18.03
2019-02-27T03:34:05.149Z,18.80
2019-02-27T03:36:54.132Z,18.07
2019-02-27T03:39:49.193Z,18.60
2019-02-27T03:42:53.239Z,18.90
2019-02-27T03:45:54.538Z,18.87
2019-02-27T03:48:41.165Z,18.90
2019-02-27T03:51:25.484Z,19.47
2019-02-27T03:54:20.649Z,18.80
2019-02-27T03:57:20.223Z,19.03
2019-02-27T04:00:01.186Z,17.33
2019-02-27T04:03:01.887Z,17.20
2019-02-27T04:05:46.227Z,17.50
2019-02-27T04:08:59.409Z,18.80
2019-02-27T04:11:29.346Z,18.03
2019-02-27T04:14:03.941Z,18.30
2019-02-27T04:16:31.705Z,18.70
2019-02-27T04:19:04.442Z,18.17
2019-02-27T04:21:32.995Z,17.60
2019-02-27T04:24:02.604Z,18.40
2019-02-27T04:26:41.546Z,18.67
2019-02-27T04:29:08.982Z,18.37
2019-02-27T04:31:38.949Z,18.23
2019-02-27T04:34:08.599Z,17.60
2019-02-27T04:36:38.306Z,17.50
2019-02-27T04:39:07.999Z,17.33
2019-02-27T04:41:38.654Z,16.70
2019-02-27T04:44:08.437Z,18.47
2019-02-27T04:46:38.090Z,16.50
2019-02-27T04:49:07.869Z,17.10
2019-02-27T04:51:37.498Z,16.93
2019-02-27T04:54:07.530Z,15.63
2019-02-27T04:56:37.225Z,17.03
2019-02-27T04:59:06.952Z,16.53
2019-02-27T05:01:37.402Z,16.53
2019-02-27T05:04:07.305Z,16.50
2019-02-27T05:06:36.986Z,15.77
2019-02-27T05:09:07.242Z,17.17
2019-02-27T05:11:37.894Z,15.77
2019-02-27T05:14:07.540Z,15.90
2019-02-27T05:16:37.147Z,15.83
2019-02-27T05:19:06.858Z,16.73
2019-02-27T05:21:37.524Z,16.13
2019-02-27T05:24:07.724Z,16.50
2019-02-27T05:26:38.792Z,16.67
2019-02-27T05:29:08.469Z,16.87
2019-02-27T05:31:38.301Z,15.73
2019-02-27T05:34:12.729Z,16.37
2019-02-27T05:36:39.885Z,16.27
2019-02-27T05:39:09.577Z,15.93
2019-02-27T05:41:39.479Z,16.07
2019-02-27T05:44:09.233Z,16.70
2019-02-27T05:46:39.108Z,17.23
2019-02-27T05:49:08.915Z,16.40
2019-02-27T05:51:38.785Z,16.83
2019-02-27T05:54:09.538Z,16.67
2019-02-27T05:56:39.165Z,15.77
2019-02-27T05:59:08.903Z,16.33
2019-02-27T06:01:38.774Z,15.60
2019-02-27T06:04:08.582Z,16.43
2019-02-27T06:06:38.314Z,14.30
2019-02-27T06:09:10.227Z,15.07
2019-02-27T06:11:39.473Z,15.93
2019-02-27T06:14:09.142Z,13.50
2019-02-27T06:16:40.741Z,13.43
2019-02-27T06:19:10.229Z,13.27
2019-02-27T06:21:39.976Z,13.63
2019-02-27T06:24:12.558Z,13.07
2019-02-27T06:26:40.989Z,14.80
2019-02-27T06:29:10.623Z,15.27
2019-02-27T06:31:40.238Z,12.67
2019-02-27T06:34:10.015Z,13.83
2019-02-27T06:36:42.890Z,13.43
2019-02-27T06:39:12.156Z,13.43
2019-02-27T06:41:41.823Z,13.50
2019-02-27T06:44:11.473Z,12.33
2019-02-27T06:46:41.142Z,12.53
2019-02-27T06:49:10.746Z,13.47
2019-02-27T06:51:40.489Z,12.43
2019-02-27T06:54:10.167Z,12.40
2019-02-27T06:56:39.773Z,13.43
2019-02-27T06:59:09.383Z,11.27
2019-02-27T07:01:40.086Z,13.00
2019-02-27T07:04:09.687Z,11.40
2019-02-27T07:06:39.429Z,11.40
2019-02-27T07:09:11.301Z,10.77
2019-02-27T07:11:44.872Z,10.77
2019-02-27T07:14:11.668Z,12.07
2019-02-27T07:16:41.449Z,11.03
2019-02-27T07:19:13.219Z,11.03
2019-02-27T07:21:42.428Z,11.47
2019-02-27T07:24:12.143Z,11.43
2019-02-27T07:26:41.821Z,12.90
2019-02-27T07:29:20.999Z,11.93
2019-02-27T07:31:43.067Z,11.97
2019-02-27T07:34:14.364Z,11.28
2019-02-27T07:36:44.145Z,13.47
2019-02-27T07:39:13.751Z,13.23
2019-02-27T07:41:43.341Z,13.13
2019-02-27T07:44:12.994Z,13.33
2019-02-27T07:46:42.703Z,13.07
2019-02-27T07:49:12.741Z,12.17
2019-02-27T07:51:42.451Z,12.07
2019-02-27T07:54:12.128Z,13.70
2019-02-27T07:56:41.822Z,15.10
2019-02-27T07:59:11.438Z,13.47
2019-02-27T08:01:43.654Z,12.97
2019-02-27T08:04:12.464Z,12.43
2019-02-27T08:06:42.135Z,12.77
2019-02-27T08:09:11.915Z,11.53
2019-02-27T08:11:41.574Z,12.20
2019-02-27T08:14:12.931Z,12.30
2019-02-27T08:16:43.774Z,11.73
2019-02-27T08:19:13.482Z,12.97
2019-02-27T08:21:43.117Z,11.77
2019-02-27T08:24:12.793Z,10.60
2019-02-27T08:26:42.488Z,11.40
2019-02-27T08:29:12.202Z,11.83
2019-02-27T08:31:41.821Z,11.20
2019-02-27T08:34:12.436Z,11.97
2019-02-27T08:36:42.131Z,11.97
2019-02-27T08:39:11.791Z,11.80
2019-02-27T08:41:41.480Z,11.87
2019-02-27T08:44:12.265Z,11.73
2019-02-27T08:46:42.679Z,11.57
2019-02-27T08:49:12.347Z,11.80
2019-02-27T08:51:42.661Z,12.23
2019-02-27T08:54:13.524Z,11.70
2019-02-27T08:56:44.071Z,12.20
2019-02-27T08:59:15.608Z,12.10
2019-02-27T09:01:45.232Z,11.67
2019-02-27T09:04:14.914Z,11.35
2019-02-27T09:06:44.624Z,11.50
2019-02-27T09:09:15.001Z,13.40
2019-02-27T09:11:45.645Z,11.60
2019-02-27T09:14:15.370Z,11.43
2019-02-27T09:16:45.084Z,11.12
2019-02-27T09:19:14.754Z,12.03
2019-02-27T09:21:44.719Z,11.63
2019-02-27T09:24:14.459Z,11.20
2019-02-27T09:26:44.126Z,12.50
2019-02-27T09:29:18.157Z,12.07
2019-02-27T09:31:50.737Z,12.68
2019-02-27T09:34:16.653Z,10.80
2019-02-27T09:36:46.339Z,11.80
2019-02-27T09:39:16.050Z,11.90
2019-02-27T09:41:46.905Z,12.03
2019-02-27T09:44:16.678Z,12.37
2019-02-27T09:46:46.316Z,12.00
2019-02-27T09:49:16.002Z,12.77
2019-02-27T09:51:45.641Z,11.50
2019-02-27T09:54:15.578Z,13.08
2019-02-27T09:56:45.255Z,13.18
2019-02-27T09:59:16.806Z,12.00
2019-02-27T10:01:46.350Z,11.22
2019-02-27T10:04:15.987Z,11.93
2019-02-27T10:06:45.646Z,12.95
2019-02-27T10:09:19.654Z,10.85
2019-02-27T10:11:52.176Z,12.60
2019-02-27T10:14:21.727Z,12.23
2019-02-27T10:16:51.737Z,12.75
2019-02-27T10:19:21.436Z,12.20
2019-02-27T10:21:51.178Z,13.53
2019-02-27T10:24:20.803Z,12.82
2019-02-27T10:26:53.475Z,12.55
2019-02-27T10:29:21.931Z,12.05
2019-02-27T10:31:51.691Z,12.93
2019-02-27T10:34:21.335Z,14.13
2019-02-27T10:36:51.009Z,13.43
2019-02-27T10:39:20.775Z,12.60
2019-02-27T10:41:50.746Z,13.65
2019-02-27T10:44:20.491Z,13.05
2019-02-27T10:46:52.031Z,13.40
2019-02-27T10:49:22.373Z,13.55
2019-02-27T10:51:52.106Z,13.72
2019-02-27T10:54:21.800Z,13.08
2019-02-27T10:56:51.502Z,13.18
2019-02-27T10:59:22.350Z,12.40
2019-02-27T11:01:52.691Z,13.32
2019-02-27T11:04:22.322Z,13.58
2019-02-27T11:06:51.990Z,12.90
2019-02-27T11:09:28.643Z,13.38
2019-02-27T11:11:58.381Z,12.82
2019-02-27T11:14:31.767Z,13.22
2019-02-27T11:17:02.432Z,12.60
2019-02-27T11:19:34.790Z,12.75
2019-02-27T11:22:04.862Z,12.07
2019-02-27T11:24:34.724Z,13.10
2019-02-27T11:27:06.244Z,12.05
2019-02-27T11:29:36.351Z,12.40
2019-02-27T11:32:06.163Z,12.43
2019-02-27T11:34:35.891Z,11.97
2019-02-27T11:37:05.781Z,11.48
2019-02-27T11:41:55.611Z,12.10
2019-02-27T11:44:25.730Z,11.43
2019-02-27T11:46:59.013Z,11.20
2019-02-27T11:49:26.795Z,12.43
2019-02-27T11:51:57.099Z,11.10
2019-02-27T11:54:26.910Z,11.35
2019-02-27T11:56:57.054Z,11.20
2019-02-27T11:59:26.783Z,11.15
2019-02-27T12:01:56.562Z,10.55
2019-02-27T12:04:26.355Z,11.38
2019-02-27T12:06:56.079Z,11.10
2019-02-27T12:09:26.966Z,11.70
2019-02-27T12:11:56.635Z,11.15
2019-02-27T12:14:26.413Z,10.85
2019-02-27T12:16:56.132Z,10.48
2019-02-27T12:19:25.771Z,10.15
2019-02-27T12:21:59.494Z,9.98
2019-02-27T12:24:27.138Z,9.83
2019-02-27T12:26:56.879Z,9.70
2019-02-27T12:29:27.315Z,9.88
2019-02-27T12:31:57.087Z,10.25
2019-02-27T12:34:26.772Z,11.40
2019-02-27T12:36:56.470Z,10.53
2019-02-27T12:39:26.210Z,10.30
2019-02-27T12:41:55.844Z,10.50
2019-02-27T12:44:25.631Z,10.32
2019-02-27T12:46:55.656Z,11.43
2019-02-27T12:49:25.343Z,10.43
2019-02-27T12:51:55.124Z,11.30
2019-02-27T12:54:26.856Z,11.35
2019-02-27T12:56:57.221Z,10.45
2019-02-27T12:59:26.876Z,11.80
2019-02-27T13:01:56.572Z,11.25
2019-02-27T13:04:26.239Z,11.15
2019-02-27T13:06:55.886Z,13.48
2019-02-27T13:09:25.571Z,12.07
2019-02-27T13:11:55.491Z,11.73
2019-02-27T13:14:25.135Z,12.82
2019-02-27T13:16:55.341Z,12.88
2019-02-27T13:19:24.999Z,12.47
2019-02-27T13:21:55.015Z,12.43
2019-02-27T13:24:25.618Z,12.05
2019-02-27T13:26:56.258Z,11.93
2019-02-27T13:29:25.895Z,13.05
2019-02-27T13:31:56.614Z,14.07
2019-02-27T13:34:26.463Z,13.30
2019-02-27T13:36:56.311Z,13.35
2019-02-27T13:39:26.328Z,15.05
2019-02-27T13:41:55.995Z,15.63
2019-02-27T13:44:25.878Z,15.23
2019-02-27T13:46:57.032Z,16.77
2019-02-27T13:49:26.986Z,16.32
2019-02-27T13:51:56.716Z,16.50
2019-02-27T13:54:26.413Z,16.95
2019-02-27T13:56:56.035Z,18.00
2019-02-27T13:59:25.709Z,17.73
2019-02-27T14:01:55.338Z,18.67
2019-02-27T14:04:24.983Z,19.82
2019-02-27T14:06:54.627Z,23.60
2019-02-27T14:09:24.284Z,20.70
2019-02-27T14:11:58.390Z,20.48
2019-02-27T14:14:25.437Z,20.12
2019-02-27T14:16:55.071Z,21.37
2019-02-27T14:19:24.713Z,23.35
2019-02-27T14:21:56.083Z,23.05
2019-02-27T14:24:25.915Z,25.15
2019-02-27T14:26:55.538Z,24.60
2019-02-27T14:29:26.075Z,25.08
2019-02-27T14:31:56.522Z,26.20
2019-02-27T14:34:27.448Z,25.48
2019-02-27T14:36:58.793Z,26.62
2019-02-27T14:39:29.685Z,28.05
2019-02-27T14:42:00.119Z,27.25
2019-02-27T14:44:31.494Z,29.15
2019-02-27T14:47:02.141Z,30.27
2019-02-27T14:49:31.811Z,31.25
2019-02-27T14:52:01.444Z,27.48
2019-02-27T14:54:31.127Z,22.60
2019-02-27T14:57:00.834Z,21.77
2019-02-27T14:59:31.476Z,24.77
2019-02-27T15:02:01.432Z,29.70
2019-02-27T15:04:32.334Z,26.75
2019-02-27T15:07:02.513Z,28.38
2019-02-27T15:09:36.101Z,32.98
2019-02-27T15:12:03.547Z,35.38
2019-02-27T15:14:33.195Z,37.78
2019-02-27T15:17:03.155Z,34.63
2019-02-27T15:19:32.803Z,29.25
2019-02-27T15:22:02.446Z,20.32
2019-02-27T15:24:34.790Z,13.95
2019-02-27T15:27:03.464Z,12.60
2019-02-27T15:29:33.076Z,12.53
2019-02-27T15:32:02.707Z,13.22
2019-02-27T15:34:32.425Z,12.75
2019-02-27T15:37:04.187Z,12.53
2019-02-27T15:39:33.580Z,13.13
2019-02-27T15:42:03.297Z,12.10
2019-02-27T15:44:34.534Z,13.40
2019-02-27T15:47:04.892Z,12.23
2019-02-27T15:49:34.521Z,12.55
2019-02-27T15:52:07.007Z,13.18
2019-02-27T15:54:36.648Z,14.78
2019-02-27T15:57:06.312Z,15.23
2019-02-27T15:59:40.619Z,15.68
2019-02-27T16:02:07.298Z,14.83
2019-02-27T16:04:37.051Z,15.38
2019-02-27T16:07:06.704Z,16.30
2019-02-27T16:09:36.349Z,16.35
2019-02-27T16:12:06.238Z,14.75
2019-02-27T16:14:35.898Z,16.85
2019-02-27T16:17:05.559Z,17.25
2019-02-27T16:19:35.197Z,16.17
2019-02-27T16:22:04.875Z,16.90
2019-02-27T16:24:34.677Z,17.37
2019-02-27T16:27:05.005Z,16.62
2019-02-27T16:29:34.624Z,17.02
2019-02-27T16:32:04.852Z,18.75
2019-02-27T16:34:34.488Z,20.05
2019-02-27T16:37:05.932Z,22.15
2019-02-27T16:39:40.877Z,22.98
2019-02-27T16:42:07.065Z,20.05
2019-02-27T16:44:36.698Z,20.10
2019-02-27T16:47:06.347Z,18.73
2019-02-27T16:49:35.989Z,17.67
2019-02-27T16:52:08.767Z,18.25
2019-02-27T16:54:37.140Z,19.12
2019-02-27T16:57:07.059Z,17.35
2019-02-27T16:59:36.786Z,16.52
2019-02-27T17:02:06.415Z,15.65
2019-02-27T17:04:36.405Z,13.98
2019-02-27T17:07:07.192Z,15.38
2019-02-27T17:09:36.809Z,15.35
2019-02-27T17:12:06.980Z,15.65
2019-02-27T17:14:39.293Z,14.98
2019-02-27T17:17:09.205Z,16.23
2019-02-27T17:19:38.827Z,15.50
2019-02-27T17:22:08.489Z,16.45
2019-02-27T17:24:38.166Z,16.65
2019-02-27T17:27:12.581Z,15.68
2019-02-27T17:29:39.120Z,15.05
2019-02-27T17:32:08.932Z,15.03
2019-02-27T17:34:38.589Z,16.35
2019-02-27T17:37:08.206Z,16.02
2019-02-27T17:39:37.864Z,16.23
2019-02-27T17:42:07.821Z,17.52
2019-02-27T17:44:38.869Z,16.12
2019-02-27T17:47:10.258Z,16.10
2019-02-27T17:49:40.624Z,15.72
2019-02-27T17:52:11.510Z,16.37
2019-02-27T17:54:41.434Z,16.10
2019-02-27T17:57:11.214Z,16.27
2019-02-27T17:59:42.436Z,16.62
2019-02-27T18:02:12.517Z,18.45
2019-02-27T18:04:42.172Z,18.87
2019-02-27T18:07:11.835Z,19.45
2019-02-27T18:09:41.479Z,21.10
2019-02-27T18:12:11.165Z,21.93
2019-02-27T18:14:44.525Z,22.58
2019-02-27T18:17:12.116Z,24.27
2019-02-27T18:19:41.830Z,25.90
2019-02-27T18:22:14.665Z,25.70
2019-02-27T18:24:42.852Z,25.20
2019-02-27T18:27:12.483Z,26.85
2019-02-27T18:29:44.499Z,24.98
2019-02-27T18:32:15.030Z,27.15
2019-02-27T18:34:45.349Z,23.25
2019-02-27T18:37:19.074Z,23.70
2019-02-27T18:39:47.972Z,21.62
2019-02-27T18:42:20.725Z,21.15
2019-02-27T18:44:52.121Z,21.05
2019-02-27T18:47:24.096Z,20.30
2019-02-27T18:49:55.644Z,20.37
2019-02-27T18:52:25.499Z,22.27
2019-02-27T18:54:56.153Z,23.67
2019-02-27T18:57:25.971Z,23.85
2019-02-27T18:59:57.455Z,25.35
2019-02-27T19:02:27.995Z,26.15
2019-02-27T19:04:57.911Z,27.35
2019-02-27T19:07:28.619Z,26.10
2019-02-27T19:09:58.480Z,24.80
2019-02-27T19:12:28.698Z,22.10
2019-02-27T19:14:58.503Z,22.10
2019-02-27T19:17:31.076Z,19.27
2019-02-27T19:19:59.888Z,19.82
2019-02-27T19:22:29.618Z,19.40
2019-02-27T19:25:00.192Z,20.15
2019-02-27T19:27:31.496Z,19.85
2019-02-27T19:30:06.332Z,21.37
2019-02-27T19:32:34.066Z,19.90
2019-02-27T19:35:03.958Z,19.83
2019-02-27T19:37:36.418Z,20.65
2019-02-27T19:40:05.876Z,22.87
2019-02-27T19:42:35.857Z,32.80
2019-02-27T19:45:05.753Z,42.05
2019-02-27T19:47:35.382Z,44.98
2019-02-27T19:50:08.488Z,39.80
2019-02-27T19:52:37.266Z,32.60
2019-02-27T19:55:07.258Z,25.00
2019-02-27T19:57:39.289Z,23.90
2019-02-27T20:00:10.087Z,24.12
2019-02-27T20:02:40.338Z,22.82
2019-02-27T20:05:10.282Z,20.88
2019-02-27T20:07:40.959Z,18.37
2019-02-27T20:10:12.167Z,17.45
2019-02-27T20:12:41.932Z,19.27
2019-02-27T20:15:12.574Z,18.80
2019-02-27T20:17:42.470Z,17.23
2019-02-27T20:20:13.627Z,18.25
2019-02-27T20:22:43.498Z,17.77
2019-02-27T20:25:14.679Z,18.97
2019-02-27T20:27:44.540Z,19.07
2019-02-27T20:30:17.100Z,18.85
2019-02-27T20:32:47.258Z,18.30
2019-02-27T20:35:20.821Z,18.30
2019-02-27T20:37:49.684Z,19.32
2019-02-27T20:40:19.495Z,18.12
2019-02-27T20:42:50.384Z,19.73
2019-02-27T20:45:20.944Z,18.45
2019-02-27T20:47:54.603Z,19.87
2019-02-27T20:50:34.709Z,19.85
2019-02-27T20:53:00.638Z,19.30
2019-02-27T20:55:30.873Z,19.42
2019-02-27T20:58:01.517Z,18.80
2019-02-27T21:00:36.079Z,18.95
2019-02-27T21:03:02.783Z,18.60
2019-02-27T21:05:32.636Z,18.12
2019-02-27T21:08:02.679Z,18.73
2019-02-27T21:10:32.840Z,19.70
2019-02-27T21:13:02.568Z,19.13
2019-02-27T21:15:33.474Z,18.95
2019-02-27T21:18:03.380Z,19.90
2019-02-27T21:20:33.324Z,17.65
2019-02-27T21:23:03.198Z,17.95
2019-02-27T21:25:32.818Z,18.55
2019-02-27T21:28:06.795Z,18.05
2019-02-27T21:30:33.812Z,18.32
2019-02-27T21:33:03.458Z,18.07
2019-02-27T21:35:33.168Z,18.98
2019-02-27T21:38:02.875Z,19.55
2019-02-27T21:40:33.362Z,19.53
2019-02-27T21:43:04.899Z,20.17
2019-02-27T21:45:37.127Z,20.10
2019-02-27T21:48:06.138Z,20.00
2019-02-27T21:50:39.657Z,20.88
2019-02-27T21:53:07.173Z,19.05
2019-02-27T21:55:36.805Z,19.82
2019-02-27T21:58:06.548Z,19.80
2019-02-27T22:00:36.456Z,20.50
2019-02-27T22:03:06.294Z,20.93
2019-02-27T22:05:42.477Z,20.97
2019-02-27T22:08:07.455Z,20.85
2019-02-27T22:10:37.369Z,20.75
2019-02-27T22:13:10.600Z,21.20
2019-02-27T22:15:38.501Z,21.23
2019-02-27T22:18:11.254Z,20.72
2019-02-27T22:20:39.706Z,21.70
2019-02-27T22:23:12.723Z,21.00
2019-02-27T22:25:40.883Z,22.07
2019-02-27T22:28:10.575Z,23.33
2019-02-27T22:30:40.293Z,22.97
2019-02-27T22:33:09.994Z,23.93
2019-02-27T22:35:40.734Z,23.40
2019-02-27T22:38:11.461Z,24.17
2019-02-27T22:40:41.211Z,26.00
2019-02-27T22:43:10.988Z,24.33
2019-02-27T22:45:44.009Z,26.00
2019-02-27T22:48:12.112Z,24.87
2019-02-27T22:50:41.931Z,24.93
2019-02-27T22:53:11.651Z,24.27
2019-02-27T22:55:42.298Z,26.20
2019-02-27T22:58:12.853Z,25.55
2019-02-27T23:01:21.456Z,25.53
2019-02-27T23:03:57.786Z,25.77
2019-02-27T23:06:28.266Z,25.70
2019-02-27T23:08:58.121Z,26.40
2019-02-27T23:11:27.934Z,27.33
2019-02-27T23:13:57.607Z,27.93
2019-02-27T23:16:29.815Z,28.23
2019-02-27T23:18:58.631Z,29.00
2019-02-27T23:21:28.442Z,28.23
2019-02-27T23:23:58.442Z,28.33
2019-02-27T23:26:28.188Z,28.17
2019-02-27T23:28:57.911Z,29.87
2019-02-27T23:31:27.606Z,29.83
2019-02-27T23:33:57.221Z,30.17
2019-02-27T23:36:26.859Z,30.23
2019-02-27T23:38:56.502Z,31.07
2019-02-27T23:41:26.130Z,32.73
2019-02-27T23:43:55.838Z,32.53
2019-02-27T23:46:25.551Z,31.87
2019-02-27T23:48:55.221Z,32.80
2019-02-27T23:51:24.939Z,32.37
2019-02-27T23:53:54.574Z,32.87
2019-02-27T23:56:24.205Z,32.93
2019-02-27T23:58:53.872Z,32.30
